Time;durP1;ratioP1;P1;durP2;ratioP2;P2;SDS_P1;SDS_P2;PMS_P1;PMS_P2;Temp;Humidity;BMP_temperature;BMP_pressure;BME280_temperature;BME280_humidity;BME280_pressure;Samples;Min_cycle;Max_cycle;Signal;HPM_P1;HPM_P2
2021/12/01 00:01:19;;;;;;;31.58;20.15;;;;;;;-0.04;81.31;94564.69;5073059;28;20207;-79
2021/12/01 00:03:46;;;;;;;25.25;15.98;;;;;;;-0.42;82.38;94572.53;5073683;28;20208;-79
2021/12/01 00:06:13;;;;;;;20.30;11.90;;;;;;;-0.70;82.77;94567.00;5073140;28;20222;-78
2021/12/01 00:08:40;;;;;;;14.73;8.90;;;;;;;-0.75;82.70;94564.66;5073786;28;20193;-79
2021/12/01 00:11:07;;;;;;;13.90;8.75;;;;;;;-1.00;83.67;94576.97;5073657;28;20190;-79
2021/12/01 00:13:36;;;;;;;10.07;7.15;;;;;;;-1.17;84.35;94559.69;5072983;28;20186;-79
2021/12/01 00:16:06;;;;;;;20.70;9.63;;;;;;;-1.13;84.39;94568.13;5073188;28;20221;-79
2021/12/01 00:18:36;;;;;;;11.90;9.52;;;;;;;-0.83;84.25;94578.78;5073600;28;20279;-79
2021/12/01 00:21:03;;;;;;;14.63;9.23;;;;;;;-0.69;83.34;94573.81;5073021;28;20213;-79
2021/12/01 00:23:30;;;;;;;16.15;10.10;;;;;;;-0.86;83.06;94569.47;5072394;28;20202;-79
2021/12/01 00:25:57;;;;;;;19.00;10.35;;;;;;;-1.25;84.80;94534.31;5073172;28;20584;-79
2021/12/01 00:28:24;;;;;;;13.48;10.13;;;;;;;-0.93;83.87;94535.41;5073146;28;20211;-79
2021/12/01 00:30:53;;;;;;;19.33;11.20;;;;;;;-0.73;83.76;94531.91;5072898;28;20545;-79
2021/12/01 00:33:22;;;;;;;13.25;8.90;;;;;;;-0.94;84.01;94531.16;5038073;28;20198;-79
2021/12/01 00:35:51;;;;;;;16.85;8.07;;;;;;;-0.97;84.25;94533.06;5072923;28;20228;-79
2021/12/01 00:38:18;;;;;;;17.60;8.70;;;;;;;-1.07;84.80;94527.50;5073293;28;20190;-79
2021/12/01 00:40:45;;;;;;;20.50;11.20;;;;;;;-1.07;85.18;94536.97;5073272;28;20198;-78
2021/12/01 00:43:17;;;;;;;15.35;10.25;;;;;;;-0.78;84.45;94533.03;5073600;28;20249;-79
2021/12/01 00:45:49;;;;;;;13.98;10.20;;;;;;;-0.78;84.29;94526.16;5055352;28;20202;-79
2021/12/01 00:48:19;;;;;;;16.60;11.15;;;;;;;-0.66;84.48;94517.84;5072898;28;20193;-78
2021/12/01 00:50:47;;;;;;;28.40;15.68;;;;;;;-0.55;84.61;94519.09;5073034;28;20206;-79
2021/12/01 00:53:15;;;;;;;23.33;11.70;;;;;;;-0.48;83.33;94526.44;5072612;28;20198;-79
2021/12/01 00:55:43;;;;;;;22.15;11.77;;;;;;;-0.35;84.64;94519.78;5072523;28;20185;-79
2021/12/01 00:58:11;;;;;;;18.60;10.40;;;;;;;-0.21;84.21;94518.28;5072838;28;20205;-79
2021/12/01 01:00:39;;;;;;;17.17;9.30;;;;;;;-0.11;83.32;94514.34;5073136;28;20216;-79
2021/12/01 01:03:08;;;;;;;15.15;10.15;;;;;;;-0.11;82.73;94522.91;5073498;28;20206;-79
2021/12/01 01:05:38;;;;;;;16.48;10.95;;;;;;;0.05;83.10;94517.00;5072782;28;20198;-79
2021/12/01 01:08:05;;;;;;;15.48;11.32;;;;;;;0.15;82.66;94515.63;5037732;28;20697;-79
2021/12/01 01:10:57;;;;;;;24.63;15.45;;;;;;;0.15;82.19;94515.63;5072741;28;20213;-79
2021/12/01 01:16:23;;;;;;;29.13;17.38;;;;;;;0.07;81.92;94504.84;5043034;28;20550;-79
2021/12/01 01:18:54;;;;;;;42.97;20.27;;;;;;;0.10;82.20;94522.75;5073021;28;20195;-79
2021/12/01 01:21:24;;;;;;;41.78;22.27;;;;;;;-0.02;81.65;94530.16;5073120;28;20248;-79
2021/12/01 01:23:54;;;;;;;33.90;18.35;;;;;;;-0.05;82.64;94540.66;5072634;28;20202;-78
2021/12/01 01:26:22;;;;;;;35.95;22.17;;;;;;;-0.07;82.71;94533.91;5076048;28;20257;-78
2021/12/01 01:28:49;;;;;;;37.63;22.80;;;;;;;-0.27;83.01;94518.59;5075985;28;20197;-78
2021/12/01 01:31:18;;;;;;;40.08;21.52;;;;;;;-0.23;83.68;94533.81;5075941;28;20202;-79
2021/12/01 01:33:45;;;;;;;37.63;22.65;;;;;;;-0.17;84.66;94548.16;5075773;28;20202;-78
2021/12/01 01:36:12;;;;;;;39.03;21.73;;;;;;;-0.19;84.79;94548.22;5076012;28;20206;-79
2021/12/01 01:38:41;;;;;;;41.78;21.23;;;;;;;-0.15;83.57;94560.06;5075556;28;20206;-78
2021/12/01 01:41:12;;;;;;;32.30;19.00;;;;;;;-0.13;84.46;94562.56;5075438;28;20202;-79
2021/12/01 01:43:44;;;;;;;28.08;16.13;;;;;;;-0.13;83.99;94563.41;5075417;28;20213;-79
2021/12/01 01:46:12;;;;;;;27.73;17.40;;;;;;;-0.08;83.64;94550.28;5075444;28;20194;-79
2021/12/01 01:48:49;;;;;;;23.92;13.77;;;;;;;-0.16;83.24;94542.94;5075579;28;20198;-79
2021/12/01 01:51:17;;;;;;;26.73;15.50;;;;;;;-0.27;83.38;94542.63;5075547;28;20197;-79
2021/12/01 01:53:45;;;;;;;24.83;16.02;;;;;;;-0.11;83.83;94556.41;5075534;28;20212;-78
2021/12/01 01:56:13;;;;;;;27.55;16.02;;;;;;;-0.05;84.07;94550.97;5075327;28;20235;-79
2021/12/01 01:58:42;;;;;;;20.50;10.73;;;;;;;0.07;84.15;94544.38;5075820;28;20202;-78
2021/12/01 02:01:15;;;;;;;10.65;8.13;;;;;;;0.04;83.00;94529.06;5075450;28;20198;-78
2021/12/01 02:03:44;;;;;;;11.00;7.80;;;;;;;-0.23;82.36;94536.41;5075549;28;20202;-79
2021/12/01 02:06:13;;;;;;;11.00;8.73;;;;;;;-0.30;82.50;94542.75;5075191;28;20662;-78
2021/12/01 02:08:42;;;;;;;13.82;8.07;;;;;;;-0.25;82.44;94532.25;5056971;28;20224;-78
2021/12/01 02:11:12;;;;;;;11.85;9.32;;;;;;;-0.23;82.86;94526.09;5075144;28;20209;-79
2021/12/01 02:13:41;;;;;;;13.85;7.63;;;;;;;-0.11;82.79;94540.94;5075350;28;20193;-78
2021/12/01 02:16:08;;;;;;;12.25;9.48;;;;;;;0.01;82.96;94515.47;5075788;28;20192;-78
2021/12/01 02:18:35;;;;;;;11.80;8.90;;;;;;;0.07;82.63;94507.44;5074871;28;20641;-78
2021/12/01 02:21:11;;;;;;;12.60;8.27;;;;;;;0.08;81.90;94516.84;5075456;28;20206;-78
2021/12/01 02:23:39;;;;;;;18.25;11.00;;;;;;;-0.26;82.40;94494.47;5075320;28;20281;-78
2021/12/01 02:26:08;;;;;;;21.25;10.70;;;;;;;-0.14;83.54;94507.59;5074763;28;20673;-79
2021/12/01 02:28:37;;;;;;;16.13;9.65;;;;;;;-0.02;83.76;94504.38;5075282;28;20205;-79
2021/12/01 02:31:05;;;;;;;15.52;8.90;;;;;;;0.06;83.99;94501.44;5075076;28;20661;-79
2021/12/01 02:33:31;;;;;;;16.80;9.43;;;;;;;0.04;83.60;94507.59;5075000;28;20738;-79
2021/12/01 02:35:58;;;;;;;14.65;9.30;;;;;;;0.10;83.67;94496.97;5074921;28;20757;-78
2021/12/01 02:38:27;;;;;;;12.75;8.15;;;;;;;0.13;84.15;94504.53;5074669;28;20665;-78
2021/12/01 02:40:54;;;;;;;13.63;9.80;;;;;;;0.13;83.44;94502.78;5074619;28;20286;-79
2021/12/01 02:43:23;;;;;;;19.73;10.43;;;;;;;-0.49;84.06;94499.00;5039579;28;20225;-79
2021/12/01 02:45:53;;;;;;;11.30;8.68;;;;;;;-0.60;85.50;94490.09;5074956;28;20205;-78
2021/12/01 02:48:21;;;;;;;17.50;8.52;;;;;;;-0.64;86.58;94484.25;5074547;28;20275;-79
2021/12/01 02:50:49;;;;;;;18.20;7.03;;;;;;;-0.40;85.62;94482.25;5074538;28;20214;-79
2021/12/01 02:53:17;;;;;;;15.18;7.32;;;;;;;-0.32;85.80;94486.13;5074139;28;20653;-79
2021/12/01 02:55:53;;;;;;;8.07;6.47;;;;;;;-0.23;85.56;94494.31;5074247;28;20680;-78
2021/12/01 02:58:21;;;;;;;7.53;6.03;;;;;;;-0.11;84.37;94525.47;5074669;28;20220;-79
2021/12/01 03:00:49;;;;;;;12.45;6.65;;;;;;;0.09;84.53;94516.75;5055651;28;20203;-78
2021/12/01 03:03:17;;;;;;;8.27;5.40;;;;;;;-0.16;83.80;94511.16;5074034;28;20202;-78
2021/12/01 03:05:47;;;;;;;7.70;6.57;;;;;;;0.02;84.58;94524.88;5074020;28;20191;-79
2021/12/01 03:08:16;;;;;;;18.77;10.95;;;;;;;-0.65;84.77;94493.75;5074207;28;20315;-78
2021/12/01 03:10:44;;;;;;;8.15;5.55;;;;;;;-0.50;85.51;94530.00;5074009;28;20277;-79
2021/12/01 03:13:12;;;;;;;8.63;5.95;;;;;;;-0.28;86.10;94511.75;5038922;28;20202;-79
2021/12/01 03:15:39;;;;;;;17.80;9.52;;;;;;;-0.27;85.89;94523.75;5055365;28;20268;-79
2021/12/01 03:18:06;;;;;;;10.43;5.97;;;;;;;-0.23;83.91;94525.25;5073330;28;20208;-79
2021/12/01 03:20:34;;;;;;;9.30;6.63;;;;;;;-0.07;84.32;94537.31;5073461;28;20202;-79
2021/12/01 03:23:01;;;;;;;7.50;6.35;;;;;;;0.03;84.76;94527.38;5055263;28;20202;-79
2021/12/01 03:25:28;;;;;;;15.32;6.28;;;;;;;0.02;84.20;94530.88;5074114;28;20202;-79
2021/12/01 03:27:55;;;;;;;7.47;5.32;;;;;;;-0.25;83.45;94525.34;5073874;28;20283;-78
2021/12/01 03:30:24;;;;;;;7.35;5.70;;;;;;;-0.12;83.85;94534.13;5073756;28;20190;-79
2021/12/01 03:32:51;;;;;;;5.88;5.28;;;;;;;-0.42;84.25;94548.50;5073905;28;20201;-78
2021/12/01 03:35:19;;;;;;;7.70;5.30;;;;;;;-0.49;84.54;94550.53;5073400;28;20201;-79
2021/12/01 03:37:47;;;;;;;6.90;6.20;;;;;;;-0.60;85.05;94557.09;5073451;28;20202;-78
2021/12/01 03:40:16;;;;;;;7.05;5.00;;;;;;;-0.32;84.61;94539.41;5073582;28;20202;-78
2021/12/01 03:42:45;;;;;;;9.63;5.63;;;;;;;-0.74;84.17;94535.41;5073203;28;20676;-79
2021/12/01 03:45:13;;;;;;;7.38;5.88;;;;;;;-0.74;86.38;94540.56;5073411;28;20198;-78
2021/12/01 03:47:42;;;;;;;5.20;4.30;;;;;;;-0.59;85.09;94553.59;5073258;28;20216;-79
2021/12/01 03:50:10;;;;;;;5.60;4.88;;;;;;;-0.61;84.24;94545.94;5073787;28;20202;-79
2021/12/01 03:52:37;;;;;;;8.18;5.78;;;;;;;-0.58;84.40;94534.66;5073619;28;20202;-79
2021/12/01 03:55:06;;;;;;;10.80;6.35;;;;;;;-0.62;84.13;94531.41;5073794;28;20192;-78
2021/12/01 03:57:33;;;;;;;9.00;6.93;;;;;;;-0.33;84.20;94525.69;5073287;28;20241;-78
2021/12/01 04:00:00;;;;;;;7.72;6.03;;;;;;;-0.18;82.81;94507.81;5073234;28;20288;-79
2021/12/01 04:02:27;;;;;;;9.88;7.45;;;;;;;0.03;82.92;94523.97;5073666;28;20198;-79
2021/12/01 04:04:55;;;;;;;9.80;6.18;;;;;;;0.18;83.15;94521.44;5073652;28;20186;-79
2021/12/01 04:07:22;;;;;;;9.65;5.47;;;;;;;0.26;83.08;94515.88;5073133;28;20213;-79
2021/12/01 04:09:50;;;;;;;5.72;5.22;;;;;;;0.31;83.11;94513.94;5073836;28;20186;-79
2021/12/01 04:12:18;;;;;;;10.23;6.20;;;;;;;0.37;82.56;94505.88;5073628;28;20297;-79
2021/12/01 04:14:45;;;;;;;57.80;34.20;;;;;;;0.46;82.24;94514.88;5073330;28;20193;-79
2021/12/01 04:17:12;;;;;;;24.63;17.55;;;;;;;0.48;82.30;94516.47;5073662;28;20209;-79
2021/12/01 04:19:38;;;;;;;13.38;10.45;;;;;;;0.55;82.85;94504.06;5073718;28;20194;-79
2021/12/01 04:22:07;;;;;;;14.90;10.18;;;;;;;0.54;82.65;94510.97;5073459;28;20225;-79
2021/12/01 04:24:34;;;;;;;11.30;8.70;;;;;;;0.54;82.45;94515.31;5073544;28;20206;-79
2021/12/01 04:27:01;;;;;;;12.25;9.73;;;;;;;0.57;82.54;94507.41;5073389;28;20197;-79
2021/12/01 04:29:27;;;;;;;10.18;7.75;;;;;;;0.54;83.02;94495.50;5072960;28;20198;-78
2021/12/01 04:31:54;;;;;;;62.97;36.90;;;;;;;0.27;83.67;94494.34;5037696;28;20202;-78
2021/12/01 04:34:21;;;;;;;41.10;20.58;;;;;;;0.20;84.16;94496.41;5072906;28;20190;-79
2021/12/01 04:36:50;;;;;;;20.02;12.30;;;;;;;0.28;84.39;94501.16;5073251;28;20221;-80
2021/12/01 04:39:19;;;;;;;23.40;15.27;;;;;;;0.30;84.69;94496.78;5073519;28;20598;-79
2021/12/01 04:41:52;;;;;;;21.55;13.52;;;;;;;0.31;84.19;94480.38;5073072;28;20193;-80
2021/12/01 04:44:21;;;;;;;12.23;10.15;;;;;;;0.16;84.15;94517.28;5073128;28;20633;-78
2021/12/01 04:46:52;;;;;;;38.38;21.50;;;;;;;0.13;84.91;94514.84;5073077;28;20293;-79
2021/12/01 04:49:21;;;;;;;37.50;18.25;;;;;;;0.18;85.15;94523.19;5073020;28;20206;-78
2021/12/01 04:51:51;;;;;;;25.00;14.52;;;;;;;0.25;85.73;94516.81;5054638;28;20638;-79
2021/12/01 04:54:20;;;;;;;19.70;13.70;;;;;;;0.30;84.72;94518.25;5073025;28;20190;-78
2021/12/01 04:56:48;;;;;;;15.70;10.98;;;;;;;0.27;84.30;94533.88;5037846;28;20230;-79
2021/12/01 04:59:16;;;;;;;18.65;11.88;;;;;;;-0.29;86.69;94536.69;5075720;28;20189;-79
2021/12/01 05:05:05;;;;;;;32.15;19.02;;;;;;;-0.45;87.02;94541.75;5075368;28;20240;-78
2021/12/01 05:07:32;;;;;;;40.38;19.33;;;;;;;-0.55;88.26;94542.28;5041764;28;20226;-78
2021/12/01 05:10:01;;;;;;;37.95;19.90;;;;;;;-0.55;88.04;94555.16;5072712;28;20186;-78
2021/12/01 05:12:28;;;;;;;25.88;14.43;;;;;;;-0.64;87.57;94552.09;5075958;28;20766;-78
2021/12/01 05:14:54;;;;;;;31.88;18.02;;;;;;;-0.78;87.33;94562.22;5076577;28;20862;-78
2021/12/01 05:17:21;;;;;;;29.30;15.60;;;;;;;-0.60;86.70;94563.06;5076525;28;20206;-77
2021/12/01 05:19:48;;;;;;;43.28;23.02;;;;;;;-0.74;85.70;94563.72;5076373;28;20586;-77
2021/12/01 05:22:16;;;;;;;17.20;7.65;;;;;;;-1.03;86.37;94549.63;5076443;28;20194;-78
2021/12/01 05:24:42;;;;;;;15.63;9.63;;;;;;;-1.08;86.02;94555.88;5076525;28;20434;-77
2021/12/01 05:27:11;;;;;;;14.73;8.05;;;;;;;-0.92;86.68;94562.00;5076219;28;20198;-80
2021/12/01 05:29:38;;;;;;;7.72;6.95;;;;;;;-0.81;86.57;94564.94;5076335;28;20186;-80
2021/12/01 05:32:05;;;;;;;14.48;6.95;;;;;;;-0.69;85.12;94566.94;5075921;28;20191;-78
2021/12/01 05:34:32;;;;;;;8.98;7.55;;;;;;;-0.47;84.75;94568.50;5076261;28;20209;-78
2021/12/01 05:37:01;;;;;;;15.38;9.23;;;;;;;-0.37;83.74;94555.09;5075961;28;20186;-76
2021/12/01 05:39:28;;;;;;;19.17;11.20;;;;;;;-0.25;83.54;94558.84;5075974;28;20253;-78
2021/12/01 05:41:55;;;;;;;23.20;12.80;;;;;;;-0.30;83.82;94560.78;5076004;28;20703;-77
2021/12/01 05:44:24;;;;;;;14.30;10.60;;;;;;;-0.28;84.67;94563.31;5075760;28;20193;-77
2021/12/01 05:46:51;;;;;;;18.08;11.73;;;;;;;-0.39;84.89;94564.66;5076123;28;20202;-78
2021/12/01 05:49:18;;;;;;;12.27;8.57;;;;;;;-0.27;85.43;94558.09;5075864;28;21038;-78
2021/12/01 05:51:45;;;;;;;14.30;9.05;;;;;;;-0.39;85.10;94554.34;5076379;28;20198;-78
2021/12/01 05:54:12;;;;;;;19.40;11.48;;;;;;;-0.25;85.26;94551.13;5075876;28;20190;-78
2021/12/01 05:56:39;;;;;;;19.15;11.10;;;;;;;-0.52;85.58;94552.44;5075974;28;20714;-80
2021/12/01 05:59:06;;;;;;;19.48;10.95;;;;;;;-0.37;85.44;94565.41;5075786;28;20225;-78
2021/12/01 06:01:34;;;;;;;13.82;8.85;;;;;;;0.04;92.45;94561.75;5075473;28;20285;-78
2021/12/01 06:04:02;;;;;;;17.98;12.15;;;;;;;-0.28;87.77;94581.38;5040839;28;20206;-78
2021/12/01 06:06:28;;;;;;;12.35;8.95;;;;;;;-0.22;86.30;94586.22;5075777;28;20528;-78
2021/12/01 06:08:56;;;;;;;17.45;8.10;;;;;;;-0.31;86.15;94584.91;5075123;28;20226;-78
2021/12/01 06:11:24;;;;;;;15.05;7.80;;;;;;;-0.33;85.94;94597.03;5075404;28;20199;-78
2021/12/01 06:13:53;;;;;;;12.85;9.70;;;;;;;-0.45;86.88;94588.16;5075066;28;20293;-79
2021/12/01 06:16:21;;;;;;;10.48;6.63;;;;;;;-0.50;87.00;94584.13;5074779;28;20657;-80
2021/12/01 06:18:50;;;;;;;10.70;7.22;;;;;;;-0.38;87.58;94604.16;5074605;28;20202;-82
2021/12/01 06:21:18;;;;;;;6.97;6.28;;;;;;;-0.37;87.08;94604.06;5075438;28;20210;-78
2021/12/01 06:23:45;;;;;;;8.70;6.22;;;;;;;-0.27;87.28;94604.50;5056841;28;20210;-78
2021/12/01 06:26:12;;;;;;;11.60;8.18;;;;;;;-0.19;87.50;94593.81;5039551;28;20434;-79
2021/12/01 06:28:40;;;;;;;20.02;7.32;;;;;;;-0.02;87.08;94627.34;5039781;28;20235;-78
2021/12/01 06:31:07;;;;;;;10.98;7.78;;;;;;;0.13;86.79;94608.56;5075135;28;20183;-78
2021/12/01 06:33:34;;;;;;;19.55;9.73;;;;;;;0.08;86.88;94617.44;5074827;28;20202;-79
2021/12/01 06:36:03;;;;;;;11.45;7.50;;;;;;;0.10;85.71;94629.34;5040170;28;20202;-80
2021/12/01 06:38:32;;;;;;;13.45;7.65;;;;;;;-0.01;87.28;94619.53;5074677;28;20677;-79
2021/12/01 06:40:59;;;;;;;11.55;8.85;;;;;;;0.09;87.03;94619.94;5075147;28;20247;-79
2021/12/01 06:43:26;;;;;;;12.50;8.23;;;;;;;0.31;86.80;94640.38;5075088;28;20186;-82
2021/12/01 06:45:53;;;;;;;11.80;7.80;;;;;;;0.33;86.28;94642.88;5074762;28;20933;-82
2021/12/01 06:48:19;;;;;;;12.60;7.43;;;;;;;0.35;85.08;94646.22;5074881;28;20214;-84
2021/12/01 06:50:46;;;;;;;24.65;12.82;;;;;;;0.10;86.08;94656.88;5075075;28;20204;-81
2021/12/01 06:53:15;;;;;;;15.27;11.25;;;;;;;0.28;85.77;94661.97;5074282;28;20186;-82
2021/12/01 06:55:42;;;;;;;12.55;7.50;;;;;;;0.42;85.31;94648.41;5074249;28;20187;-82
2021/12/01 06:58:09;;;;;;;6.35;5.32;;;;;;;0.41;84.44;94656.22;5074824;28;20190;-81
2021/12/01 07:03:57;;;;;;;15.23;8.98;;;;;;;0.58;84.12;94651.09;5073338;28;20569;-80
2021/12/01 07:06:24;;;;;;;11.30;7.38;;;;;;;0.59;83.65;94650.16;5074284;28;20191;-81
2021/12/01 07:08:54;;;;;;;29.05;12.57;;;;;;;0.49;84.29;94639.44;5074377;28;20228;-80
2021/12/01 07:11:21;;;;;;;17.70;10.95;;;;;;;0.78;84.13;94658.63;5074217;28;20608;-80
2021/12/01 07:13:58;;;;;;;16.02;10.52;;;;;;;0.95;83.76;94657.78;5073842;28;20191;-80
2021/12/01 07:16:29;;;;;;;8.13;6.13;;;;;;;0.99;83.02;94648.13;5073862;28;20201;-80
2021/12/01 07:18:56;;;;;;;37.17;20.88;;;;;;;1.10;82.69;94656.16;5074091;28;20289;-80
2021/12/01 07:21:23;;;;;;;21.80;12.80;;;;;;;1.43;82.05;94656.13;5073188;28;20208;-80
2021/12/01 07:23:52;;;;;;;15.60;11.75;;;;;;;1.59;81.78;94644.06;5074032;28;20186;-80
2021/12/01 07:26:19;;;;;;;18.00;10.93;;;;;;;1.36;80.98;94632.38;5074133;28;20190;-79
2021/12/01 07:28:46;;;;;;;24.67;16.43;;;;;;;1.72;80.85;94639.06;5071174;28;20214;-80
2021/12/01 07:31:13;;;;;;;32.20;19.80;;;;;;;1.98;81.25;94645.38;5073297;28;20972;-80
2021/12/01 07:33:40;;;;;;;10.47;8.40;;;;;;;2.09;81.08;94641.31;5073767;28;20468;-80
2021/12/01 07:36:08;;;;;;;24.00;13.77;;;;;;;2.26;81.74;94642.94;5067385;28;20955;-80
2021/12/01 07:38:35;;;;;;;26.27;17.50;;;;;;;2.17;82.75;94641.69;5063413;28;20813;-80
2021/12/01 07:41:03;;;;;;;17.87;12.23;;;;;;;2.15;82.43;94638.38;5054565;28;20453;-80
2021/12/01 07:43:30;;;;;;;21.37;12.83;;;;;;;2.33;82.36;94639.09;5061258;28;20440;-80
2021/12/01 07:45:57;;;;;;;18.47;12.93;;;;;;;2.48;83.33;94640.78;5073411;28;20437;-80
2021/12/01 07:48:24;;;;;;;22.40;16.80;;;;;;;2.62;82.12;94652.13;5073018;28;20464;-80
2021/12/01 07:50:51;;;;;;;23.90;15.93;;;;;;;2.47;80.46;94636.53;5057310;28;20460;-80
2021/12/01 07:53:18;;;;;;;22.10;13.20;;;;;;;2.39;80.43;94648.25;5054621;28;20483;-79
2021/12/01 07:55:44;;;;;;;10.83;9.30;;;;;;;2.54;79.41;94667.25;5053078;28;20447;-79
2021/12/01 07:58:13;;;;;;;14.80;11.67;;;;;;;2.72;79.91;94663.63;5053219;28;20437;-79
2021/12/01 08:00:40;;;;;;;12.30;7.87;;;;;;;2.11;78.92;94646.38;5053115;28;20432;-79
2021/12/01 08:03:07;;;;;;;17.40;12.30;;;;;;;2.14;80.95;94677.28;5018225;28;20441;-79
2021/12/01 08:05:34;;;;;;;31.57;17.77;;;;;;;2.19;80.25;94677.84;5053770;28;20438;-79
2021/12/01 08:08:01;;;;;;;27.60;16.67;;;;;;;2.43;80.17;94684.25;5052944;28;20445;-79
2021/12/01 08:10:28;;;;;;;38.00;20.00;;;;;;;2.67;81.97;94692.38;5053098;28;20499;-79
2021/12/01 08:12:56;;;;;;;29.93;14.03;;;;;;;2.45;77.62;94679.81;5053298;28;20444;-79
2021/12/01 08:15:25;;;;;;;24.97;14.13;;;;;;;2.01;79.64;94696.97;5053235;28;20441;-79
2021/12/01 08:17:53;;;;;;;20.00;11.53;;;;;;;2.38;80.17;94688.84;5052934;28;20433;-79
2021/12/01 08:20:21;;;;;;;14.47;9.20;;;;;;;2.57;78.72;94705.91;5018383;28;20508;-79
2021/12/01 08:22:48;;;;;;;14.50;9.80;;;;;;;2.52;78.54;94687.22;5053066;28;20460;-79
2021/12/01 08:25:15;;;;;;;16.47;12.40;;;;;;;2.53;78.15;94699.25;5053294;28;20516;-80
2021/12/01 08:27:42;;;;;;;32.00;18.70;;;;;;;2.46;77.32;94681.47;5053065;28;20443;-80
2021/12/01 08:30:10;;;;;;;18.23;10.43;;;;;;;2.65;77.80;94695.97;5052986;28;20480;-80
2021/12/01 08:32:45;;;;;;;11.13;7.90;;;;;;;2.80;76.70;94697.69;5052520;28;20443;-80
2021/12/01 08:35:12;;;;;;;11.70;7.67;;;;;;;2.88;76.05;94687.69;5056816;28;20954;-80
2021/12/01 08:37:39;;;;;;;12.23;8.00;;;;;;;2.43;77.06;94667.88;5056995;28;20461;-80
2021/12/01 08:40:07;;;;;;;18.20;10.40;;;;;;;2.72;78.54;94684.34;5038419;28;20449;-80
2021/12/01 08:42:34;;;;;;;12.67;9.77;;;;;;;2.94;78.89;94691.72;5057204;28;20433;-80
2021/12/01 08:45:02;;;;;;;17.17;11.50;;;;;;;2.89;76.98;94681.63;5056743;28;20487;-80
2021/12/01 08:47:31;;;;;;;25.57;15.23;;;;;;;2.61;79.32;94671.19;5038317;28;20461;-80
2021/12/01 08:50:00;;;;;;;48.97;30.37;;;;;;;2.44;81.31;94677.31;5056716;28;20469;-80
2021/12/01 08:52:27;;;;;;;39.63;24.60;;;;;;;2.73;81.22;94670.47;5056842;28;20433;-80
2021/12/01 08:54:54;;;;;;;43.17;25.67;;;;;;;2.86;80.79;94679.19;5071005;28;20440;-80
2021/12/01 08:57:21;;;;;;;55.20;30.50;;;;;;;3.08;81.51;94686.53;5041354;28;20463;-80
2021/12/01 08:59:49;;;;;;;41.07;22.30;;;;;;;3.05;80.07;94684.13;5076651;28;20434;-78
2021/12/01 09:02:16;;;;;;;30.17;20.13;;;;;;;2.86;80.18;94676.59;5076859;28;20542;-79
2021/12/01 09:04:43;;;;;;;33.10;18.60;;;;;;;3.01;79.52;94678.31;5076643;28;21084;-79
2021/12/01 09:07:11;;;;;;;22.20;13.10;;;;;;;3.19;78.36;94680.75;5076143;28;20440;-78
2021/12/01 09:09:38;;;;;;;25.67;13.83;;;;;;;3.40;79.13;94690.66;5073055;28;20486;-78
2021/12/01 09:12:06;;;;;;;14.40;9.65;;;;;;;3.48;77.05;94689.38;5075327;28;20440;-77
2021/12/01 09:14:33;;;;;;;19.93;13.63;;;;;;;3.47;77.24;94691.13;5076256;28;20214;-80
2021/12/01 09:17:00;;;;;;;22.63;15.20;;;;;;;3.44;77.77;94693.88;5076454;28;20434;-78
2021/12/01 09:19:27;;;;;;;18.03;13.00;;;;;;;3.59;77.52;94698.16;5076111;28;20799;-79
2021/12/01 09:21:54;;;;;;;12.53;8.63;;;;;;;3.35;77.38;94689.25;5076371;28;20435;-80
2021/12/01 09:24:22;;;;;;;10.90;7.60;;;;;;;3.34;78.13;94685.84;5076080;28;20933;-80
2021/12/01 09:26:49;;;;;;;9.30;6.93;;;;;;;3.38;77.79;94678.69;5057613;28;20444;-80
2021/12/01 09:29:17;;;;;;;32.67;20.60;;;;;;;3.44;78.08;94673.13;5057291;28;20454;-80
2021/12/01 09:31:44;;;;;;;15.40;6.90;;;;;;;3.51;76.04;94687.41;5076061;28;20440;-79
2021/12/01 09:34:11;;;;;;;110.23;47.43;;;;;;;3.63;77.03;94671.09;5075860;28;20429;-80
2021/12/01 09:36:38;;;;;;;13.00;8.23;;;;;;;3.78;78.95;94671.94;5075694;28;20428;-79
2021/12/01 09:39:05;;;;;;;11.50;6.50;;;;;;;3.72;75.49;94667.09;5075808;28;20494;-80
2021/12/01 09:48:17;;;;;;;11.87;7.77;;;;;;;3.91;75.27;94690.16;5074706;28;20428;-80
2021/12/01 09:50:44;;;;;;;9.37;6.40;;;;;;;3.66;75.51;94678.69;5074941;28;20468;-80
2021/12/01 09:53:11;;;;;;;8.90;7.07;;;;;;;3.68;77.35;94682.03;5074897;28;20451;-80
2021/12/01 09:55:40;;;;;;;13.57;7.60;;;;;;;3.85;76.87;94685.34;5075085;28;20800;-80
2021/12/01 09:58:10;;;;;;;10.10;6.10;;;;;;;3.98;75.79;94683.66;5075232;28;20441;-80
2021/12/01 10:00:39;;;;;;;14.67;6.90;;;;;;;3.70;76.04;94663.75;5075047;28;20573;-80
2021/12/01 10:03:06;;;;;;;12.13;8.70;;;;;;;3.89;76.13;94666.91;5039307;28;20547;-80
2021/12/01 10:06:01;;;;;;;12.10;6.37;;;;;;;4.12;76.07;94664.63;5075111;28;20975;-79
2021/12/01 10:08:30;;;;;;;10.97;6.53;;;;;;;4.09;76.59;94660.47;5075011;28;20915;-80
2021/12/01 10:10:58;;;;;;;9.47;6.33;;;;;;;4.21;76.64;94653.66;5074922;28;20456;-80
2021/12/01 10:13:28;;;;;;;11.73;6.70;;;;;;;4.01;75.65;94655.72;5074484;28;20448;-80
2021/12/01 10:15:57;;;;;;;11.03;7.20;;;;;;;4.18;75.85;94657.28;5007630;28;20437;-80
2021/12/01 10:18:24;;;;;;;10.27;7.83;;;;;;;4.17;75.49;94668.59;5074770;28;20436;-80
2021/12/01 10:21:02;;;;;;;9.70;8.20;;;;;;;4.25;78.02;94666.34;5039607;28;20444;-79
2021/12/01 10:23:29;;;;;;;14.40;8.47;;;;;;;4.16;76.13;94660.91;5040537;28;20573;-79
2021/12/01 10:25:57;;;;;;;10.87;8.87;;;;;;;4.33;77.22;94671.88;5074730;28;20452;-80
2021/12/01 10:28:35;;;;;;;14.07;8.80;;;;;;;4.51;77.02;94677.66;5074306;28;20490;-80
2021/12/01 10:31:02;;;;;;;10.27;7.50;;;;;;;4.41;77.32;94680.94;5074191;28;20440;-79
2021/12/01 10:33:30;;;;;;;13.87;9.17;;;;;;;4.18;76.80;94670.25;5074487;28;20436;-79
2021/12/01 10:36:00;;;;;;;18.77;13.37;;;;;;;4.19;78.71;94666.72;5039061;28;21221;-79
2021/12/01 10:38:29;;;;;;;14.13;8.37;;;;;;;4.00;79.95;94668.81;5074660;28;20532;-79
2021/12/01 10:41:03;;;;;;;23.97;12.33;;;;;;;4.06;78.10;94660.66;5074592;28;20437;-79
2021/12/01 10:43:43;;;;;;;10.97;7.10;;;;;;;4.11;79.90;94665.56;5074785;28;20428;-80
2021/12/01 10:53:04;;;;;;;9.43;8.40;;;;;;;4.35;78.02;94644.06;5058983;28;20462;-80
2021/12/01 10:55:32;;;;;;;15.27;7.50;;;;;;;4.42;77.46;94647.09;5074295;28;20520;-80
2021/12/01 10:58:01;;;;;;;10.87;7.20;;;;;;;4.45;76.43;94638.25;5069227;28;20477;-80
2021/12/01 11:00:30;;;;;;;13.40;9.73;;;;;;;4.60;76.12;94639.84;5070692;28;20456;-80
2021/12/01 11:03:06;;;;;;;14.60;8.73;;;;;;;4.78;76.88;94637.81;5074627;28;20542;-80
2021/12/01 11:05:34;;;;;;;10.93;9.23;;;;;;;4.82;75.07;94632.28;5035803;28;20923;-80
2021/12/01 11:08:13;;;;;;;13.10;8.60;;;;;;;4.99;75.94;94631.19;5054616;28;20440;-80
2021/12/01 11:10:40;;;;;;;16.30;8.83;;;;;;;5.24;74.75;94623.38;5034747;28;20490;-80
2021/12/01 11:13:09;;;;;;;10.03;7.93;;;;;;;5.50;74.54;94618.16;5072899;28;20540;-80
2021/12/01 11:15:38;;;;;;;14.23;11.10;;;;;;;5.74;74.86;94623.41;5073334;28;20448;-81
2021/12/01 11:18:08;;;;;;;24.07;16.37;;;;;;;5.92;74.33;94618.72;5073010;28;20444;-81
2021/12/01 11:20:40;;;;;;;15.33;11.70;;;;;;;5.95;72.68;94611.50;5072852;28;20456;-81
2021/12/01 11:23:12;;;;;;;18.20;10.80;;;;;;;5.95;71.30;94616.72;5072895;28;20441;-81
2021/12/01 11:25:39;;;;;;;16.90;10.70;;;;;;;6.04;71.24;94613.47;5072517;28;20448;-78
2021/12/01 11:28:09;;;;;;;15.23;10.13;;;;;;;6.07;70.97;94613.25;5072663;28;20544;-78
2021/12/01 11:30:36;;;;;;;18.13;11.53;;;;;;;6.15;70.44;94607.50;5037159;28;20474;-81
2021/12/01 11:33:03;;;;;;;15.70;12.33;;;;;;;6.27;70.69;94600.56;5072593;28;20499;-81
2021/12/01 11:35:31;;;;;;;23.17;15.57;;;;;;;6.26;70.86;94602.31;5072650;28;20459;-81
2021/12/01 11:37:58;;;;;;;17.90;11.33;;;;;;;6.28;71.38;94589.19;5072548;28;20537;-80
2021/12/01 11:40:27;;;;;;;15.63;12.00;;;;;;;6.36;72.29;94595.53;5072520;28;20445;-81
2021/12/01 11:42:55;;;;;;;18.63;9.27;;;;;;;6.28;69.93;94597.84;5072189;28;20940;-81
2021/12/01 11:45:22;;;;;;;39.03;21.77;;;;;;;6.07;72.60;94587.22;5072565;28;20467;-81
2021/12/01 11:47:49;;;;;;;12.20;9.53;;;;;;;6.13;73.17;94581.56;5072226;28;20451;-80
2021/12/01 11:50:21;;;;;;;10.90;8.43;;;;;;;6.14;71.54;94580.63;5072304;28;21021;-80
2021/12/01 11:53:07;;;;;;;17.40;10.80;;;;;;;6.17;72.22;94575.19;5072241;28;20510;-81
2021/12/01 11:55:54;;;;;;;19.13;10.17;;;;;;;6.17;72.05;94588.19;5072620;28;20490;-81